Time;durP1;ratioP1;P1;durP2;ratioP2;P2;SDS_P1;SDS_P2;PMS_P1;PMS_P2;Temp;Humidity;BMP_temperature;BMP_pressure;BME280_temperature;BME280_humidity;BME280_pressure;Samples;Min_cycle;Max_cycle;Signal;HPM_P1;HPM_P2
2021/12/23 00:01:37;;;;;;;33.00;31.23;;;;;;;19.42;38.00;101483.75;4928646;29;20039;-76
2021/12/23 00:04:02;;;;;;;33.72;31.80;;;;;;;19.41;37.94;101475.84;4928325;29;20039;-77
2021/12/23 00:06:27;;;;;;;34.05;32.15;;;;;;;19.41;38.02;101459.41;4919051;29;20050;-78
2021/12/23 00:08:53;;;;;;;32.65;30.85;;;;;;;19.39;37.94;101454.19;4914931;29;20519;-78
2021/12/23 00:11:18;;;;;;;36.20;34.20;;;;;;;19.39;37.93;101465.16;4913942;29;20149;-77
2021/12/23 00:14:17;;;;;;;34.08;32.20;;;;;;;19.38;37.81;101452.56;4925829;29;20137;-76
2021/12/23 00:19:22;;;;;;;32.17;30.30;;;;;;;19.37;37.79;101428.19;4929421;29;20040;-76
2021/12/23 00:24:33;;;;;;;34.10;32.00;;;;;;;19.33;37.76;101425.22;4927694;29;20099;-76
2021/12/23 00:26:59;;;;;;;33.55;31.63;;;;;;;19.35;37.67;101424.91;4921094;29;20035;-76
2021/12/23 00:29:25;;;;;;;36.28;34.05;;;;;;;19.33;37.60;101422.47;4933388;29;20557;-76
2021/12/23 00:31:50;;;;;;;33.42;31.42;;;;;;;19.33;37.60;101425.22;4929476;29;20056;-76
2021/12/23 00:34:16;;;;;;;35.10;32.90;;;;;;;19.33;37.69;101424.41;4908116;29;20040;-76
2021/12/23 00:36:44;;;;;;;33.65;31.65;;;;;;;19.31;37.60;101419.19;4917185;29;20074;-76
2021/12/23 00:39:10;;;;;;;33.80;31.90;;;;;;;19.31;37.52;101419.19;4910469;29;20039;-76
2021/12/23 00:41:36;;;;;;;34.38;32.38;;;;;;;19.30;37.38;101423.03;4924330;29;20374;-76
2021/12/23 00:44:02;;;;;;;33.25;31.45;;;;;;;19.31;37.44;101426.59;4916932;29;20051;-76
2021/12/23 00:46:27;;;;;;;34.72;32.72;;;;;;;19.30;37.21;101422.22;4929085;29;20083;-76
2021/12/23 00:48:53;;;;;;;35.00;32.83;;;;;;;19.28;37.12;101425.25;4916657;29;20047;-76
2021/12/23 00:51:19;;;;;;;35.40;33.25;;;;;;;19.29;37.29;101428.81;4929414;29;20039;-76
2021/12/23 00:53:48;;;;;;;32.83;30.95;;;;;;;19.29;37.19;101421.41;4935528;29;20580;-76
2021/12/23 00:56:14;;;;;;;34.10;32.03;;;;;;;19.27;37.02;101418.13;4923888;29;20035;-77
2021/12/23 00:58:40;;;;;;;33.58;31.67;;;;;;;19.27;37.00;101412.66;4895335;29;20044;-76
2021/12/23 01:01:06;;;;;;;33.97;32.08;;;;;;;19.27;37.02;101403.63;4928020;29;20123;-76
2021/12/23 01:03:31;;;;;;;34.40;32.35;;;;;;;19.26;36.99;101400.06;4934168;29;20068;-77
2021/12/23 01:05:57;;;;;;;33.95;32.03;;;;;;;19.25;37.10;101401.16;4929003;29;20070;-76
2021/12/23 01:08:23;;;;;;;34.88;32.53;;;;;;;19.25;37.14;101395.69;4925207;29;20435;-77
2021/12/23 01:10:52;;;;;;;34.58;32.67;;;;;;;19.24;37.00;101396.78;4930393;29;20047;-77
2021/12/23 01:13:19;;;;;;;34.60;32.67;;;;;;;19.23;36.94;101389.69;4924868;29;20079;-76
2021/12/23 01:16:02;;;;;;;35.25;33.05;;;;;;;19.23;36.85;101389.69;4926200;29;20044;-76
2021/12/23 01:18:43;;;;;;;35.13;33.13;;;;;;;19.21;36.97;101387.22;4919805;29;20044;-76
2021/12/23 01:21:16;;;;;;;33.05;31.25;;;;;;;19.19;37.01;101386.69;4924816;29;20039;-76
2021/12/23 01:23:46;;;;;;;34.00;32.13;;;;;;;19.19;36.90;101377.66;4932970;29;20044;-77
2021/12/23 01:26:17;;;;;;;33.88;31.77;;;;;;;19.17;36.78;101368.91;4919857;29;20032;-77
2021/12/23 01:28:43;;;;;;;34.00;31.98;;;;;;;19.17;37.10;101366.16;4917870;29;20388;-76
2021/12/23 01:31:08;;;;;;;33.55;31.55;;;;;;;19.17;37.10;101371.63;4924804;29;20035;-76
2021/12/23 01:33:34;;;;;;;34.65;32.60;;;;;;;19.15;36.89;101379.31;4923407;29;20056;-76
2021/12/23 01:35:59;;;;;;;33.67;31.85;;;;;;;19.15;36.80;101388.38;4910115;29;20122;-77
2021/12/23 01:38:24;;;;;;;35.55;33.33;;;;;;;19.14;36.95;101380.44;4925728;29;20036;-77
2021/12/23 01:40:50;;;;;;;33.58;31.63;;;;;;;19.13;36.92;101368.66;4923605;29;20075;-77
2021/12/23 01:43:17;;;;;;;34.75;32.63;;;;;;;19.12;36.91;101363.47;4926915;29;20531;-76
2021/12/23 01:45:48;;;;;;;33.97;32.00;;;;;;;19.11;36.83;101359.09;4932321;29;20031;-76
2021/12/23 01:48:15;;;;;;;34.40;32.40;;;;;;;19.11;37.02;101356.38;4920716;29;20039;-76
2021/12/23 01:50:40;;;;;;;35.80;33.80;;;;;;;19.10;36.89;101343.75;4935217;29;20500;-76
2021/12/23 01:53:07;;;;;;;33.78;31.83;;;;;;;19.09;36.89;101333.91;4933324;29;20134;-76
2021/12/23 01:55:35;;;;;;;36.25;33.80;;;;;;;19.08;36.99;101332.28;4925138;29;20068;-77
2021/12/23 01:58:01;;;;;;;33.33;31.53;;;;;;;19.08;37.00;101335.03;4927179;29;20035;-76
2021/12/23 02:00:30;;;;;;;34.42;32.22;;;;;;;19.07;36.79;101330.66;4923145;29;20040;-77
2021/12/23 02:02:57;;;;;;;33.22;31.42;;;;;;;19.06;37.17;101326.28;4919699;29;20059;-76
2021/12/23 02:05:23;;;;;;;33.67;31.77;;;;;;;19.05;36.93;101328.22;4933247;29;20040;-77
2021/12/23 02:07:48;;;;;;;34.40;32.40;;;;;;;19.04;36.96;101326.56;4926074;29;20043;-76
2021/12/23 02:10:14;;;;;;;34.05;32.10;;;;;;;19.03;37.27;101336.69;4918123;29;20045;-77
2021/12/23 02:12:44;;;;;;;34.63;32.72;;;;;;;19.02;36.85;101343.28;4925679;29;20036;-77
2021/12/23 02:15:11;;;;;;;34.28;32.28;;;;;;;19.02;37.17;101353.41;4926001;29;20037;-76
2021/12/23 02:17:37;;;;;;;35.40;33.00;;;;;;;19.00;37.21;101350.97;4931211;29;20040;-76
2021/12/23 02:20:04;;;;;;;35.05;32.95;;;;;;;19.00;36.98;101342.75;4926838;29;20055;-77
2021/12/23 02:22:30;;;;;;;33.38;31.52;;;;;;;19.00;36.97;101352.88;4924677;29;20124;-77
2021/12/23 02:24:55;;;;;;;34.40;32.28;;;;;;;18.98;37.29;101347.69;4913372;29;20118;-77
2021/12/23 02:27:21;;;;;;;34.25;32.35;;;;;;;18.97;37.09;101348.78;4922713;29;20492;-77
2021/12/23 02:29:46;;;;;;;33.42;31.63;;;;;;;18.97;37.04;101339.75;4931030;29;20717;-77
2021/12/23 02:32:11;;;;;;;33.75;31.75;;;;;;;18.97;37.04;101347.97;4919824;29;20056;-77
2021/12/23 02:34:37;;;;;;;33.75;31.75;;;;;;;18.95;37.07;101348.25;4924629;29;20037;-77
2021/12/23 02:37:02;;;;;;;33.92;31.92;;;;;;;18.95;37.01;101342.78;4928842;29;20393;-76
2021/12/23 02:39:28;;;;;;;33.00;31.17;;;;;;;18.93;37.05;101331.28;4916335;29;20441;-77
2021/12/23 02:41:55;;;;;;;32.70;30.80;;;;;;;18.94;37.00;101329.38;4922986;29;20111;-77
2021/12/23 02:44:21;;;;;;;32.25;30.45;;;;;;;18.92;37.25;101326.91;4920175;29;20038;-76
2021/12/23 02:46:47;;;;;;;34.22;32.22;;;;;;;18.91;36.96;101328.03;4922841;29;20037;-76
2021/12/23 02:49:12;;;;;;;33.03;31.23;;;;;;;18.91;37.06;101325.28;4932164;29;20039;-76
2021/12/23 02:51:38;;;;;;;34.08;32.08;;;;;;;18.90;37.27;101320.91;4926131;29;20153;-76
2021/12/23 02:54:04;;;;;;;32.53;30.73;;;;;;;18.89;36.93;101324.75;4933957;29;20036;-76
2021/12/23 02:56:29;;;;;;;34.75;32.53;;;;;;;18.88;37.12;101311.34;4918174;29;20040;-76
2021/12/23 02:58:55;;;;;;;33.35;31.45;;;;;;;18.88;36.79;101301.22;4922036;29;20123;-76
2021/12/23 03:01:21;;;;;;;33.67;31.73;;;;;;;18.88;37.24;101297.66;4927173;29;20392;-77
2021/12/23 03:03:47;;;;;;;34.53;32.38;;;;;;;18.86;37.13;101297.94;4915870;29;20034;-77
2021/12/23 03:06:13;;;;;;;32.70;30.92;;;;;;;18.86;36.97;101283.44;4917535;29;20123;-77
2021/12/23 03:08:47;;;;;;;36.03;33.83;;;;;;;18.85;37.14;101279.06;4899794;29;20032;-77
2021/12/23 03:11:16;;;;;;;33.53;31.63;;;;;;;18.84;37.06;101261.81;4919158;29;20035;-77
2021/12/23 03:13:42;;;;;;;34.50;32.40;;;;;;;18.83;36.83;101264.88;4911826;29;20036;-77
2021/12/23 03:16:08;;;;;;;31.88;30.08;;;;;;;18.83;37.20;101264.88;4917608;29;20480;-77
2021/12/23 03:18:34;;;;;;;33.33;31.35;;;;;;;18.81;36.77;101262.41;4915775;29;20467;-77
2021/12/23 03:21:00;;;;;;;32.67;30.85;;;;;;;18.81;37.23;101254.19;4919455;29;20119;-77
2021/12/23 03:23:26;;;;;;;32.90;30.95;;;;;;;18.80;36.88;101247.91;4924454;29;20043;-77
2021/12/23 03:25:51;;;;;;;35.38;33.35;;;;;;;18.80;37.00;101227.94;4931318;29;20116;-77
2021/12/23 03:28:17;;;;;;;33.17;31.13;;;;;;;18.78;37.11;101233.69;4925977;29;20075;-77
2021/12/23 03:30:43;;;;;;;33.95;32.05;;;;;;;18.78;36.78;101244.63;4921057;29;20072;-76
2021/12/23 03:33:09;;;;;;;33.63;31.63;;;;;;;18.78;37.03;101241.91;4932106;29;20063;-76
2021/12/23 03:35:35;;;;;;;33.13;31.13;;;;;;;18.78;37.12;101227.41;4921908;29;20103;-77
2021/12/23 03:38:02;;;;;;;32.88;30.98;;;;;;;18.75;36.74;101215.09;4917768;29;20038;-77
2021/12/23 03:40:28;;;;;;;33.25;31.35;;;;;;;18.75;36.91;101212.38;4930806;29;20480;-76
2021/12/23 03:42:54;;;;;;;34.25;32.25;;;;;;;18.75;36.98;101225.22;4927189;29;20042;-76
2021/12/23 03:45:19;;;;;;;34.00;31.90;;;;;;;18.74;37.64;101218.91;4921995;29;20110;-76
2021/12/23 03:47:48;;;;;;;34.80;32.72;;;;;;;18.73;37.00;101205.50;4917055;29;20031;-77
2021/12/23 03:50:17;;;;;;;32.70;30.70;;;;;;;18.73;36.80;101211.81;4926666;29;20036;-77
2021/12/23 03:52:42;;;;;;;33.05;31.05;;;;;;;18.72;37.00;101212.91;4915701;29;20087;-77
2021/12/23 03:55:08;;;;;;;33.85;31.85;;;;;;;18.71;36.93;101208.53;4917056;29;20497;-76
2021/12/23 03:57:33;;;;;;;33.45;31.55;;;;;;;18.71;36.95;101202.25;4916411;29;20473;-77
2021/12/23 03:59:59;;;;;;;34.88;32.78;;;;;;;18.70;37.07;101193.22;4915840;29;20094;-77
2021/12/23 04:02:24;;;;;;;33.28;31.30;;;;;;;18.70;37.00;101192.41;4916340;29;20385;-77
2021/12/23 04:04:50;;;;;;;33.92;31.92;;;;;;;18.68;37.23;101187.22;4919341;29;20489;-77
2021/12/23 04:07:16;;;;;;;32.92;31.02;;;;;;;18.67;37.08;101196.53;4929903;29;20043;-77
2021/12/23 04:09:42;;;;;;;33.70;31.67;;;;;;;18.68;37.25;101197.34;4916068;29;20039;-77
2021/12/23 04:12:07;;;;;;;32.85;30.77;;;;;;;18.67;37.42;101184.75;4932370;29;20047;-77
2021/12/23 04:14:33;;;;;;;33.63;31.63;;;;;;;18.66;37.17;101180.41;4926674;29;20496;-77
2021/12/23 04:16:58;;;;;;;32.15;30.35;;;;;;;18.66;37.00;101180.41;4930343;29;20510;-76
2021/12/23 04:19:28;;;;;;;33.97;31.88;;;;;;;18.65;37.22;101187.78;4922772;29;20032;-77
2021/12/23 04:21:53;;;;;;;34.28;32.17;;;;;;;18.63;37.11;101179.06;4923551;29;20492;-76
2021/12/23 04:24:19;;;;;;;33.85;31.95;;;;;;;18.64;37.11;101171.66;4925184;29;20047;-77
2021/12/23 04:26:44;;;;;;;36.00;33.83;;;;;;;18.63;37.14;101170.03;4920379;29;20079;-76
2021/12/23 04:29:10;;;;;;;33.08;31.17;;;;;;;18.62;36.94;101171.94;4921413;29;20046;-76
2021/12/23 04:31:35;;;;;;;32.95;30.85;;;;;;;18.61;37.12;101164.84;4914943;29;20516;-76
2021/12/23 04:34:01;;;;;;;34.60;32.35;;;;;;;18.60;37.05;101174.16;4908800;29;20314;-77
2021/12/23 04:36:27;;;;;;;33.17;30.98;;;;;;;18.60;37.11;101157.75;4930496;29;20472;-77
2021/12/23 04:38:53;;;;;;;35.00;32.80;;;;;;;18.59;37.15;101161.56;4923510;29;20063;-77
2021/12/23 04:41:18;;;;;;;33.15;31.25;;;;;;;18.58;37.13;101149.81;4935158;29;20075;-76
2021/12/23 04:43:43;;;;;;;34.13;32.03;;;;;;;18.58;37.05;101146.25;4926698;29;20131;-76
2021/12/23 04:46:10;;;;;;;33.83;31.75;;;;;;;18.56;37.02;101132.84;4928971;29;20385;-76
2021/12/23 04:48:36;;;;;;;33.85;31.77;;;;;;;18.56;37.03;101135.59;4919978;29;20396;-77
2021/12/23 04:51:02;;;;;;;33.55;31.55;;;;;;;18.55;37.14;101128.50;4931930;29;20470;-76
2021/12/23 04:53:28;;;;;;;32.95;31.10;;;;;;;18.56;37.10;101129.31;4926852;29;20436;-76
2021/12/23 04:55:54;;;;;;;35.13;33.00;;;;;;;18.54;37.11;101121.38;4930802;29;20031;-77
2021/12/23 04:58:19;;;;;;;33.03;31.02;;;;;;;18.55;37.11;101124.94;4927207;29;20063;-77
2021/12/23 05:00:51;;;;;;;33.75;31.65;;;;;;;18.53;37.14;101125.22;4934368;29;20489;-77
2021/12/23 05:03:18;;;;;;;34.92;32.78;;;;;;;18.52;37.02;101133.72;4925321;29;20393;-77
2021/12/23 05:05:45;;;;;;;34.45;32.35;;;;;;;18.52;37.21;101130.97;4929749;29;20437;-77
2021/12/23 05:08:11;;;;;;;34.03;32.03;;;;;;;18.52;37.32;101130.97;4915394;29;20098;-78
2021/12/23 05:10:36;;;;;;;34.25;32.28;;;;;;;18.50;37.18;101134.03;4921719;29;20032;-76
2021/12/23 05:13:03;;;;;;;34.92;32.75;;;;;;;18.51;37.19;101123.88;4920077;29;20044;-77
2021/12/23 05:15:28;;;;;;;34.17;32.17;;;;;;;18.49;37.12;101117.88;4924761;29;20043;-77
2021/12/23 05:17:54;;;;;;;34.85;32.75;;;;;;;18.49;37.37;101118.69;4934350;29;20087;-77
2021/12/23 05:20:19;;;;;;;34.10;32.00;;;;;;;18.48;37.17;101114.34;4936236;29;20039;-77
2021/12/23 05:22:46;;;;;;;34.70;32.60;;;;;;;18.48;37.10;101110.78;4905067;29;20070;-76
2021/12/23 05:25:11;;;;;;;34.70;32.63;;;;;;;18.47;37.07;101112.72;4924853;29;20127;-76
2021/12/23 05:27:37;;;;;;;32.85;30.95;;;;;;;18.46;37.34;101099.31;4934378;29;20118;-76
2021/12/23 05:30:06;;;;;;;33.75;31.75;;;;;;;18.46;37.12;101102.84;4919309;29;20047;-77
2021/12/23 05:32:31;;;;;;;33.53;31.42;;;;;;;18.45;37.15;101101.22;4927807;29;20492;-76
2021/12/23 05:34:57;;;;;;;34.30;32.00;;;;;;;18.45;37.36;101097.69;4925295;29;20036;-77
2021/12/23 05:37:22;;;;;;;34.17;32.05;;;;;;;18.44;37.53;101093.31;4917568;29;20044;-77
2021/12/23 05:39:47;;;;;;;32.63;30.63;;;;;;;18.43;37.20;101094.41;4929551;29;20504;-77
2021/12/23 05:42:13;;;;;;;33.35;31.35;;;;;;;18.43;37.33;101086.22;4913811;29;20032;-77
2021/12/23 05:44:38;;;;;;;34.28;32.05;;;;;;;18.41;37.28;101091.97;4929397;29;20175;-76
2021/12/23 05:47:04;;;;;;;34.78;32.67;;;;;;;18.41;37.14;101088.41;4924021;29;20066;-76
2021/12/23 05:49:29;;;;;;;34.13;32.13;;;;;;;18.41;37.16;101093.88;4906067;29;20032;-76
2021/12/23 05:51:55;;;;;;;33.88;31.80;;;;;;;18.39;37.24;101088.69;4924721;29;20495;-76
2021/12/23 05:54:20;;;;;;;32.88;30.75;;;;;;;18.39;36.97;101091.44;4920564;29;20036;-77
2021/12/23 05:56:46;;;;;;;34.22;32.13;;;;;;;18.38;37.12;101098.00;4921996;29;20046;-77
2021/12/23 05:59:11;;;;;;;33.40;31.35;;;;;;;18.38;37.16;101103.47;4924532;29;20445;-76
2021/12/23 06:01:37;;;;;;;33.08;31.00;;;;;;;18.37;37.12;101094.47;4908684;29;20044;-76
2021/12/23 06:04:02;;;;;;;34.60;32.42;;;;;;;18.37;37.15;101093.66;4924925;29;20076;-76
2021/12/23 06:06:28;;;;;;;34.03;31.98;;;;;;;18.37;37.19;101093.66;4931843;29;20492;-77
2021/12/23 06:08:53;;;;;;;34.45;31.95;;;;;;;18.36;37.15;101090.06;4915237;29;20135;-77
2021/12/23 06:11:19;;;;;;;33.33;31.23;;;;;;;18.36;37.17;101086.53;4914694;29;20044;-77
2021/12/23 06:13:44;;;;;;;34.53;31.80;;;;;;;18.34;37.19;101083.25;4918693;29;20044;-77
2021/12/23 06:16:09;;;;;;;35.28;32.85;;;;;;;18.33;37.03;101081.66;4930030;29;20067;-78
2021/12/23 06:18:35;;;;;;;33.78;31.67;;;;;;;18.33;37.10;101076.97;4918968;29;20393;-76
2021/12/23 06:21:01;;;;;;;35.72;33.53;;;;;;;18.32;37.20;101078.09;4932632;29;20040;-76
2021/12/23 06:23:26;;;;;;;34.17;32.00;;;;;;;18.32;37.08;101071.78;4934721;29;20044;-76
2021/12/23 06:25:53;;;;;;;34.50;32.20;;;;;;;18.31;37.25;101051.84;4922107;29;20083;-75
2021/12/23 06:28:18;;;;;;;33.58;31.35;;;;;;;18.31;37.33;101043.63;4929963;29;20504;-78
2021/12/23 06:30:43;;;;;;;77.25;43.28;;;;;;;18.32;38.13;101045.28;4927758;29;20051;-78
2021/12/23 06:33:09;;;;;;;47.72;36.00;;;;;;;18.32;38.72;101037.06;4918976;29;20067;-77
2021/12/23 06:35:35;;;;;;;41.97;35.63;;;;;;;18.34;39.42;101032.16;4933493;29;20044;-77
2021/12/23 06:38:08;;;;;;;38.60;34.65;;;;;;;18.32;39.17;101026.13;4917722;29;20465;-77
2021/12/23 06:40:34;;;;;;;39.38;34.65;;;;;;;18.33;39.23;101032.41;4926657;29;20028;-77
2021/12/23 06:42:59;;;;;;;39.20;35.17;;;;;;;18.33;39.13;101030.50;4919848;29;20047;-77
2021/12/23 06:45:24;;;;;;;36.83;33.00;;;;;;;18.33;39.23;101040.63;4900216;29;20036;-77
2021/12/23 06:47:50;;;;;;;37.05;33.65;;;;;;;18.34;39.46;101036.78;4920414;29;20047;-77
2021/12/23 06:50:17;;;;;;;36.78;33.58;;;;;;;18.34;39.44;101048.56;4919345;29;20044;-77
2021/12/23 06:52:43;;;;;;;37.15;33.67;;;;;;;18.35;39.29;101041.97;4929704;29;20046;-77
2021/12/23 06:55:11;;;;;;;36.92;33.83;;;;;;;18.37;39.51;101038.97;4917227;29;20036;-76
2021/12/23 06:57:39;;;;;;;35.73;32.07;;;;;;;18.38;39.27;101041.38;4903731;29;20032;-76
2021/12/23 07:00:06;;;;;;;;;;;;;;;18.37;39.71;101045.22;4927710;29;20115;-77
2021/12/23 07:02:34;;;;;;;32.97;30.40;;;;;;;18.38;39.58;101035.91;4924750;29;19945;-76
2021/12/23 07:04:59;;;;;;;35.38;32.53;;;;;;;18.41;39.62;101036.44;4924790;29;20028;-76
2021/12/23 07:07:28;;;;;;;33.60;31.20;;;;;;;18.41;39.63;101031.78;4916865;29;20483;-77
2021/12/23 07:09:54;;;;;;;33.15;30.77;;;;;;;18.43;39.58;101026.84;4925371;29;20035;-77
2021/12/23 07:12:20;;;;;;;34.70;32.20;;;;;;;18.45;39.94;101034.78;4922178;29;20123;-77
2021/12/23 07:14:46;;;;;;;34.28;31.63;;;;;;;18.47;39.93;101030.66;4917322;29;20024;-77
2021/12/23 07:17:11;;;;;;;35.53;33.05;;;;;;;18.47;40.10;101027.91;4901947;29;20045;-77
2021/12/23 07:19:37;;;;;;;33.67;31.40;;;;;;;18.49;40.18;101028.41;4915091;29;20039;-77
2021/12/23 07:22:03;;;;;;;32.80;30.75;;;;;;;18.51;39.74;101030.88;4930099;29;20501;-77
2021/12/23 07:24:29;;;;;;;33.88;31.55;;;;;;;18.52;40.02;101027.88;4917478;29;20036;-79
2021/12/23 07:26:54;;;;;;;34.00;31.48;;;;;;;18.54;40.03;101031.09;4926501;29;20404;-78
2021/12/23 07:29:20;;;;;;;34.70;31.67;;;;;;;18.55;40.01;101038.22;4933526;29;20054;-76
2021/12/23 07:31:46;;;;;;;33.88;31.77;;;;;;;18.58;40.30;101039.56;4926089;29;20489;-75
2021/12/23 07:34:11;;;;;;;34.25;31.95;;;;;;;18.59;40.16;101035.72;4918422;29;20044;-75
2021/12/23 07:36:37;;;;;;;33.45;31.40;;;;;;;18.60;40.22;101029.97;4927628;29;20051;-75
2021/12/23 07:39:08;;;;;;;33.20;30.95;;;;;;;18.62;40.38;101029.66;4931676;29;20106;-75
2021/12/23 07:41:34;;;;;;;33.67;31.58;;;;;;;18.63;40.83;101030.50;4925281;29;20034;-76
2021/12/23 07:44:04;;;;;;;32.97;30.83;;;;;;;18.64;40.46;101032.91;4919151;29;20032;-76
2021/12/23 07:46:37;;;;;;;33.08;31.05;;;;;;;18.67;40.82;101031.53;4926218;29;20059;-76
2021/12/23 07:49:04;;;;;;;33.60;31.50;;;;;;;18.67;40.55;101028.78;4918469;29;20492;-76
2021/12/23 07:51:30;;;;;;;35.60;33.20;;;;;;;18.68;40.90;101030.44;4922971;29;20040;-76
2021/12/23 07:53:55;;;;;;;33.65;31.40;;;;;;;18.69;40.76;101021.91;4929167;29;20111;-75
2021/12/23 07:56:22;;;;;;;36.88;34.45;;;;;;;18.70;40.85;101020.84;4920390;29;20040;-77
2021/12/23 07:58:47;;;;;;;34.15;31.95;;;;;;;18.71;40.88;101027.94;4928870;29;20028;-79
2021/12/23 08:01:13;;;;;;;35.38;32.88;;;;;;;18.72;41.04;101029.56;4927409;29;20393;-76
2021/12/23 08:03:38;;;;;;;33.15;30.63;;;;;;;18.74;41.04;101026.53;4927074;29;20046;-76
2021/12/23 08:06:04;;;;;;;35.28;32.72;;;;;;;18.74;41.05;101021.88;4928384;29;20494;-76
2021/12/23 08:08:29;;;;;;;35.80;33.60;;;;;;;18.75;40.81;101018.06;4927832;29;20028;-77
2021/12/23 08:10:55;;;;;;;35.03;32.80;;;;;;;18.76;41.00;101019.69;4930098;29;20039;-78
2021/12/23 08:13:20;;;;;;;37.10;34.53;;;;;;;18.77;40.88;101017.75;4922839;29;20162;-79
2021/12/23 08:15:46;;;;;;;37.72;34.83;;;;;;;18.78;41.04;101011.19;4904315;29;20047;-78
2021/12/23 08:18:11;;;;;;;38.20;35.50;;;;;;;18.80;40.86;101014.47;4896517;29;20218;-79
2021/12/23 08:20:37;;;;;;;36.78;34.15;;;;;;;18.80;40.79;101001.59;4911190;29;20032;-79
2021/12/23 08:23:02;;;;;;;37.35;34.53;;;;;;;18.81;40.38;101005.13;4911972;29;20035;-80
2021/12/23 08:25:28;;;;;;;39.25;36.38;;;;;;;18.83;40.78;101007.59;4909654;29;20036;-77
2021/12/23 08:27:53;;;;;;;37.03;34.63;;;;;;;18.84;40.43;101001.81;4925996;29;20508;-82
2021/12/23 08:30:20;;;;;;;37.90;35.30;;;;;;;18.86;40.78;100991.38;4908743;29;20383;-84
2021/12/23 08:32:46;;;;;;;38.53;36.00;;;;;;;18.91;40.80;100985.03;4916483;29;20183;-83
2021/12/23 08:35:13;;;;;;;36.88;34.33;;;;;;;18.93;40.93;100988.31;4922048;29;20040;-83
2021/12/23 08:37:40;;;;;;;36.95;34.35;;;;;;;18.96;40.94;100980.31;4927350;29;20849;-83
2021/12/23 08:40:08;;;;;;;35.63;33.33;;;;;;;18.98;40.94;100993.72;4922948;29;20078;-86
2021/12/23 08:42:34;;;;;;;37.75;35.22;;;;;;;19.00;41.22;100983.31;4907764;29;20040;-86
2021/12/23 08:45:00;;;;;;;35.92;33.53;;;;;;;19.01;41.04;100977.50;4925171;29;20036;-85
2021/12/23 08:47:25;;;;;;;39.08;36.55;;;;;;;19.03;41.02;100975.31;4926318;29;20366;-84
2021/12/23 08:49:50;;;;;;;36.35;34.05;;;;;;;19.04;40.95;100984.31;4912863;29;20072;-82
2021/12/23 08:52:16;;;;;;;37.88;35.25;;;;;;;19.07;41.15;100985.66;4912935;29;20070;-83
2021/12/23 08:54:42;;;;;;;36.63;34.13;;;;;;;19.09;40.99;100986.19;4894463;29;20481;-84
2021/12/23 08:57:09;;;;;;;36.95;34.55;;;;;;;19.11;41.20;100979.31;4931544;29;20127;-82
2021/12/23 08:59:35;;;;;;;37.08;34.60;;;;;;;19.12;40.78;100978.19;4927247;29;20079;-82
2021/12/23 09:02:01;;;;;;;36.92;34.53;;;;;;;19.14;41.07;100975.16;4930532;29;20039;-85
2021/12/23 09:04:27;;;;;;;39.35;36.80;;;;;;;19.16;40.94;100975.69;4923966;29;20043;-85
2021/12/23 09:06:52;;;;;;;37.75;35.20;;;;;;;19.17;40.56;100971.81;4933089;29;20046;-82
2021/12/23 09:09:18;;;;;;;37.92;35.47;;;;;;;19.19;40.96;100964.13;4923678;29;20039;-85
2021/12/23 09:11:44;;;;;;;36.97;34.60;;;;;;;19.20;40.80;100957.53;4928190;29;20094;-86
2021/12/23 09:14:09;;;;;;;36.30;33.80;;;;;;;19.22;40.63;100949.84;4930222;29;20102;-86
2021/12/23 09:16:35;;;;;;;37.22;34.83;;;;;;;19.23;40.46;100952.31;4927745;29;20039;-85
2021/12/23 09:19:01;;;;;;;35.92;33.65;;;;;;;19.24;40.47;100951.19;4929340;29;20114;-84
2021/12/23 09:21:26;;;;;;;38.63;35.92;;;;;;;19.26;40.22;100961.84;4926040;29;20028;-86
2021/12/23 09:23:52;;;;;;;36.95;34.58;;;;;;;19.28;40.11;100956.91;4928739;29;20127;-85
2021/12/23 09:26:17;;;;;;;36.83;34.47;;;;;;;19.29;40.25;100950.28;4931639;29;20042;-82
2021/12/23 09:34:06;;;;;;;35.65;33.35;;;;;;;19.32;40.13;100941.47;4930437;29;20127;-89
2021/12/23 09:36:31;;;;;;;39.70;36.83;;;;;;;19.34;39.86;100939.25;4916173;29;20096;-90
2021/12/23 09:38:57;;;;;;;38.40;35.60;;;;;;;19.34;39.07;100943.94;4929685;29;20047;-91
2021/12/23 09:41:23;;;;;;;39.13;35.97;;;;;;;19.34;39.00;100936.53;4930007;29;20043;-88
2021/12/23 09:43:50;;;;;;;38.65;35.92;;;;;;;19.35;38.38;100937.34;4931982;29;20027;-86
2021/12/23 09:46:23;;;;;;;38.63;36.00;;;;;;;19.35;38.43;100937.34;4929691;29;20059;-89
2021/12/23 09:48:49;;;;;;;38.15;35.65;;;;;;;19.35;38.28;100920.91;4927274;29;20078;-85
2021/12/23 09:51:20;;;;;;;37.75;35.30;;;;;;;19.35;38.24;100918.16;4923066;29;20035;-86
2021/12/23 09:53:55;;;;;;;37.75;35.35;;;;;;;19.35;38.42;100929.97;4926392;29;20513;-87
2021/12/23 09:56:21;;;;;;;36.95;34.58;;;;;;;19.37;38.67;100929.63;4931903;29;20043;-90
2021/12/23 09:58:46;;;;;;;37.55;35.13;;;;;;;19.37;38.92;100933.19;4898902;29;20370;-90
2021/12/23 10:01:12;;;;;;;37.40;34.90;;;;;;;19.38;38.88;100932.09;4931052;29;20042;-88
2021/12/23 10:03:39;;;;;;;36.40;33.97;;;;;;;19.40;39.33;100929.03;4929009;29;20424;-90
2021/12/23 10:06:04;;;;;;;36.28;33.97;;;;;;;19.42;39.24;100938.59;4933063;29;20036;-87
2021/12/23 10:08:30;;;;;;;37.90;35.40;;;;;;;19.44;39.17;100930.91;4931601;29;20035;-86
2021/12/23 10:11:04;;;;;;;36.53;34.08;;;;;;;19.45;39.16;100921.59;4916960;29;20108;-90
2021/12/23 10:32:55;;;;;;;39.07;36.40;;;;;;;19.55;39.70;100879.47;4929184;29;21227;-88
2021/12/23 10:38:15;;;;;;;36.72;34.33;;;;;;;19.58;39.84;100865.19;4908976;29;20396;-88
2021/12/23 10:40:44;;;;;;;36.80;34.45;;;;;;;19.59;39.59;100866.81;4895584;29;20068;-86
2021/12/23 10:43:20;;;;;;;37.28;34.78;;;;;;;19.61;39.86;100858.31;4898523;29;20042;-89
2021/12/23 10:45:55;;;;;;;35.72;33.50;;;;;;;19.63;39.74;100853.31;4892444;29;20047;-87
2021/12/23 10:48:21;;;;;;;36.85;34.28;;;;;;;19.64;39.83;100852.22;4914748;29;20032;-85
2021/12/23 10:50:55;;;;;;;36.58;34.20;;;;;;;19.65;39.78;100849.19;4898961;29;20029;-87
2021/12/23 10:59:23;;;;;;;36.42;34.22;;;;;;;19.69;39.68;100822.03;4908790;29;20047;-88
2021/12/23 11:02:09;;;;;;;35.75;33.60;;;;;;;19.72;39.66;100823.34;4890011;29;20075;-86
2021/12/23 11:05:00;;;;;;;37.28;34.92;;;;;;;19.71;39.94;100808.84;4895840;29;20496;-83
2021/12/23 11:07:39;;;;;;;36.90;34.45;;;;;;;19.73;39.66;100800.28;4903687;29;20042;-87
2021/12/23 11:10:24;;;;;;;37.13;34.83;;;;;;;19.75;39.74;100798.06;4920481;29;20078;-85
2021/12/23 11:38:24;;;;;;;35.90;33.55;;;;;;;19.73;38.48;100753.69;4925644;29;20155;-87
2021/12/23 11:40:54;;;;;;;36.03;33.60;;;;;;;19.73;38.16;100748.22;4925911;29;20040;-87
2021/12/23 11:46:03;;;;;;;37.13;34.67;;;;;;;19.71;38.16;100742.25;4899459;29;20106;-88
2021/12/23 11:48:31;;;;;;;38.47;35.85;;;;;;;19.73;38.21;100740.84;4881092;29;20043;-86
2021/12/23 11:53:31;;;;;;;39.40;36.92;;;;;;;19.74;38.08;100730.69;4896750;29;20456;-90
2021/12/23 11:55:57;;;;;;;38.13;35.72;;;;;;;19.73;38.37;100740.84;4911107;29;20112;-92
2021/12/23 11:58:25;;;;;;;38.67;35.90;;;;;;;19.74;38.47;100734.22;4897591;29;20043;-91
2021/12/23 12:01:03;;;;;;;36.75;34.35;;;;;;;19.74;37.92;100720.53;4926978;29;20067;-94
2021/12/23 12:03:28;;;;;;;39.30;36.65;;;;;;;19.74;38.31;100716.97;4898298;29;20623;-86
2021/12/23 12:06:13;;;;;;;38.20;35.80;;;;;;;19.74;38.04;100708.75;4913427;29;20043;-88
2021/12/23 12:08:38;;;;;;;40.67;37.58;;;;;;;19.73;38.13;100691.50;4927504;29;20035;-84
2021/12/23 12:11:15;;;;;;;37.97;35.58;;;;;;;19.74;38.18;100686.81;4928106;29;20047;-84
2021/12/23 12:13:41;;;;;;;38.95;36.33;;;;;;;19.73;38.12;100691.50;4924348;29;20035;-83
2021/12/23 12:16:26;;;;;;;39.53;36.92;;;;;;;19.73;38.00;100682.44;4911079;29;20392;-87
2021/12/23 12:18:52;;;;;;;37.83;35.22;;;;;;;19.73;38.09;100680.53;4929484;29;20119;-85